createdAt,value
2018-09-05T00:02:29.209Z,2.77
2018-09-05T00:05:00.171Z,2.63
2018-09-05T00:07:31.165Z,2.43
2018-09-05T00:10:02.127Z,2.43
2018-09-05T00:12:33.190Z,2.83
2018-09-05T00:15:04.230Z,2.80
2018-09-05T00:17:35.445Z,2.73
2018-09-05T00:22:32.759Z,3.20
2018-09-05T00:25:04.099Z,3.30
2018-09-05T00:27:35.501Z,3.40
2018-09-05T00:32:32.258Z,3.43
2018-09-05T00:37:29.438Z,3.33
2018-09-05T00:42:26.975Z,3.10
2018-09-05T00:44:58.165Z,3.00
2018-09-05T00:47:29.975Z,3.23
2018-09-05T00:50:02.256Z,3.00
2018-09-05T00:52:33.832Z,3.27
2018-09-05T00:55:05.019Z,3.60
2018-09-05T00:57:37.155Z,3.87
2018-09-05T01:00:09.326Z,3.10
2018-09-05T01:02:40.743Z,3.47
2018-09-05T01:05:12.505Z,3.13
2018-09-05T01:07:44.335Z,2.70
2018-09-05T01:12:42.509Z,3.07
2018-09-05T01:15:14.657Z,2.80
2018-09-05T01:17:46.267Z,2.67
2018-09-05T01:20:17.698Z,2.73
2018-09-05T01:22:49.258Z,2.87
2018-09-05T01:25:20.700Z,2.83
2018-09-05T01:27:52.824Z,3.13
2018-09-05T01:30:28.418Z,3.00
2018-09-05T01:33:01.019Z,2.83
2018-09-05T01:35:32.384Z,2.90
2018-09-05T01:38:03.395Z,2.63
2018-09-05T01:40:35.943Z,3.00
2018-09-05T01:43:07.066Z,2.50
2018-09-05T01:45:38.335Z,2.87
2018-09-05T01:48:09.803Z,3.00
2018-09-05T01:50:45.226Z,2.23
2018-09-05T01:53:16.511Z,2.70
2018-09-05T01:55:48.222Z,2.90
2018-09-05T01:58:19.827Z,2.93
2018-09-05T02:00:51.347Z,2.70
2018-09-05T02:03:22.678Z,2.67
2018-09-05T02:05:53.894Z,2.93
2018-09-05T02:08:24.971Z,3.30
2018-09-05T02:10:56.188Z,3.27
2018-09-05T02:13:27.216Z,3.10
2018-09-05T02:15:58.778Z,2.97
2018-09-05T02:18:29.734Z,2.57
2018-09-05T02:21:00.702Z,3.27
2018-09-05T02:23:32.016Z,3.07
2018-09-05T02:26:03.143Z,2.93
2018-09-05T02:28:34.091Z,3.20
2018-09-05T02:31:05.311Z,3.27
2018-09-05T02:33:36.286Z,3.10
2018-09-05T02:36:07.321Z,2.97
2018-09-05T02:38:38.374Z,3.23
2018-09-05T02:41:09.430Z,2.90
2018-09-05T02:43:45.488Z,3.10
2018-09-05T02:46:16.831Z,2.87
2018-09-05T02:48:48.379Z,2.93
2018-09-05T02:51:19.631Z,2.53
2018-09-05T02:53:51.299Z,2.53
2018-09-05T02:56:25.200Z,2.93
2018-09-05T02:58:56.246Z,2.97
2018-09-05T03:01:27.267Z,2.63
2018-09-05T03:03:58.223Z,2.97
2018-09-05T03:06:29.187Z,2.73
2018-09-05T03:09:00.399Z,2.33
2018-09-05T03:11:31.428Z,2.87
2018-09-05T03:14:02.767Z,2.10
2018-09-05T03:16:34.151Z,2.70
2018-09-05T03:19:05.587Z,2.40
2018-09-05T03:21:36.966Z,2.90
2018-09-05T03:24:08.054Z,2.50
2018-09-05T03:26:39.285Z,2.97
2018-09-05T03:29:10.511Z,3.17
2018-09-05T03:31:42.047Z,2.63
2018-09-05T03:34:13.332Z,2.67
2018-09-05T03:36:44.285Z,2.90
2018-09-05T03:39:15.431Z,2.53
2018-09-05T03:41:46.639Z,2.50
2018-09-05T03:44:18.027Z,2.87
2018-09-05T03:46:49.600Z,2.20
2018-09-05T03:49:21.043Z,2.57
2018-09-05T03:51:52.231Z,2.70
2018-09-05T03:54:23.410Z,2.57
2018-09-05T03:56:54.665Z,2.40
2018-09-05T03:59:26.019Z,2.33
2018-09-05T04:01:57.034Z,2.50
2018-09-05T04:04:28.240Z,2.47
2018-09-05T04:06:59.202Z,2.20
2018-09-05T04:09:30.173Z,2.67
2018-09-05T04:12:01.196Z,2.40
2018-09-05T04:14:32.392Z,2.40
2018-09-05T04:17:03.510Z,2.47
2018-09-05T04:19:35.307Z,2.73
2018-09-05T04:22:06.857Z,2.70
2018-09-05T04:24:38.270Z,2.43
2018-09-05T04:27:09.712Z,2.80
2018-09-05T04:29:41.315Z,2.60
2018-09-05T04:32:12.558Z,2.33
2018-09-05T04:34:43.537Z,2.27
2018-09-05T04:37:14.504Z,2.50
2018-09-05T04:39:45.728Z,2.43
2018-09-05T04:42:16.743Z,2.20
2018-09-05T04:44:48.014Z,2.50
2018-09-05T04:47:18.991Z,2.40
2018-09-05T04:49:52.962Z,2.73
2018-09-05T04:52:24.011Z,2.73
2018-09-05T04:54:55.155Z,2.87
2018-09-05T04:57:26.694Z,2.60
2018-09-05T04:59:57.675Z,2.23
2018-09-05T05:02:29.213Z,2.67
2018-09-05T05:05:00.746Z,2.40
2018-09-05T05:07:31.915Z,2.87
2018-09-05T05:10:03.355Z,2.67
2018-09-05T05:12:34.836Z,2.50
2018-09-05T05:15:06.021Z,2.70
2018-09-05T05:17:37.002Z,2.40
2018-09-05T05:20:08.099Z,2.57
2018-09-05T05:22:39.208Z,2.30
2018-09-05T05:25:10.427Z,2.70
2018-09-05T05:27:41.390Z,2.47
2018-09-05T05:30:12.700Z,2.37
2018-09-05T05:32:43.769Z,2.93
2018-09-05T05:35:14.891Z,2.67
2018-09-05T05:37:45.991Z,2.20
2018-09-05T05:40:17.055Z,2.60
2018-09-05T05:42:48.047Z,2.37
2018-09-05T05:45:19.216Z,2.43
2018-09-05T05:47:50.896Z,1.93
2018-09-05T05:50:22.057Z,2.63
2018-09-05T05:52:53.970Z,2.53
2018-09-05T05:55:25.164Z,2.50
2018-09-05T05:57:56.323Z,2.73
2018-09-05T06:00:28.103Z,2.70
2018-09-05T06:02:59.711Z,2.37
2018-09-05T06:05:31.506Z,2.90
2018-09-05T06:08:02.620Z,2.50
2018-09-05T06:10:33.966Z,2.20
2018-09-05T06:13:05.207Z,2.27
2018-09-05T06:15:36.686Z,2.43
2018-09-05T06:18:08.329Z,2.50
2018-09-05T06:20:40.181Z,2.27
2018-09-05T06:23:11.744Z,2.50
2018-09-05T06:25:43.730Z,2.77
2018-09-05T06:30:42.936Z,2.67
2018-09-05T06:33:14.466Z,2.53
2018-09-05T06:35:45.886Z,2.17
2018-09-05T06:38:17.187Z,2.53
2018-09-05T06:40:48.720Z,2.50
2018-09-05T06:43:19.939Z,2.43
2018-09-05T06:45:51.336Z,2.70
2018-09-05T06:48:22.674Z,2.80
2018-09-05T06:50:58.641Z,2.37
2018-09-05T06:53:30.159Z,2.60
2018-09-05T06:56:01.567Z,2.60
2018-09-05T06:58:33.084Z,2.93
2018-09-05T07:01:04.556Z,2.47
2018-09-05T07:03:36.006Z,3.00
2018-09-05T07:06:07.878Z,2.90
2018-09-05T07:08:39.626Z,2.90
2018-09-05T07:11:10.860Z,2.80
2018-09-05T07:13:42.287Z,2.80
2018-09-05T07:16:13.811Z,2.57
2018-09-05T07:18:45.308Z,2.73
2018-09-05T07:21:16.931Z,2.40
2018-09-05T07:23:48.531Z,2.87
2018-09-05T07:26:20.018Z,2.30
2018-09-05T07:28:51.404Z,2.90
2018-09-05T07:31:23.025Z,2.80
2018-09-05T07:33:54.279Z,2.63
2018-09-05T07:36:25.956Z,3.13
2018-09-05T07:38:57.598Z,3.10
2018-09-05T07:41:28.991Z,3.37
2018-09-05T07:44:00.439Z,3.27
2018-09-05T07:46:32.255Z,3.23
2018-09-05T07:49:04.059Z,2.77
2018-09-05T07:51:35.407Z,3.23
2018-09-05T07:56:32.834Z,3.30
2018-09-05T07:59:04.503Z,2.97
2018-09-05T08:01:36.092Z,3.03
2018-09-05T08:04:08.048Z,2.90
2018-09-05T08:06:40.094Z,3.13
2018-09-05T08:09:12.891Z,3.30
2018-09-05T08:11:44.309Z,2.90
2018-09-05T08:14:15.740Z,3.27
2018-09-05T08:16:47.098Z,3.00
2018-09-05T08:19:18.482Z,3.20
2018-09-05T08:21:49.906Z,2.63
2018-09-05T08:24:21.427Z,2.97
2018-09-05T08:26:52.772Z,3.00
2018-09-05T08:29:24.323Z,2.50
2018-09-05T08:31:56.042Z,3.03
2018-09-05T08:34:27.592Z,2.93
2018-09-05T08:36:59.285Z,3.10
2018-09-05T08:39:30.457Z,3.17
2018-09-05T08:42:02.173Z,3.30
2018-09-05T08:44:33.406Z,3.20
2018-09-05T08:47:04.910Z,3.57
2018-09-05T08:49:36.376Z,3.20
2018-09-05T08:52:07.849Z,3.73
2018-09-05T08:54:39.554Z,3.20
2018-09-05T08:57:10.885Z,3.50
2018-09-05T08:59:42.364Z,3.17
2018-09-05T09:02:13.836Z,3.13
2018-09-05T09:04:45.223Z,3.53
2018-09-05T09:07:17.289Z,3.80
2018-09-05T09:09:48.235Z,3.27
2018-09-05T09:12:20.211Z,3.77
2018-09-05T09:14:51.327Z,3.50
2018-09-05T09:17:22.346Z,3.90
2018-09-05T09:22:19.490Z,3.60
2018-09-05T09:24:51.209Z,4.20
2018-09-05T09:27:22.775Z,3.63
2018-09-05T09:29:54.099Z,3.63
2018-09-05T09:32:25.538Z,4.13
2018-09-05T09:34:56.732Z,4.30
2018-09-05T09:37:27.726Z,4.00
2018-09-05T09:39:59.247Z,3.47
2018-09-05T09:42:30.420Z,3.67
2018-09-05T09:45:01.655Z,3.80
2018-09-05T09:47:33.203Z,3.50
2018-09-05T09:50:04.183Z,3.90
2018-09-05T09:52:39.072Z,3.70
2018-09-05T09:55:10.411Z,3.03
2018-09-05T09:57:41.747Z,3.57
2018-09-05T10:02:43.819Z,3.50
2018-09-05T10:05:19.575Z,3.57
2018-09-05T10:07:55.199Z,3.50
2018-09-05T10:12:56.690Z,3.43
2018-09-05T10:17:34.154Z,3.70
2018-09-05T10:22:42.627Z,3.90
2018-09-05T10:25:13.723Z,3.43
2018-09-05T10:27:45.030Z,3.67
2018-09-05T10:30:16.043Z,3.43
2018-09-05T10:32:47.183Z,3.70
2018-09-05T10:35:18.374Z,3.60
2018-09-05T10:37:49.680Z,3.80
2018-09-05T10:40:20.722Z,3.50
2018-09-05T10:42:51.818Z,3.40
2018-09-05T10:47:48.878Z,3.73
2018-09-05T10:50:20.095Z,3.80
2018-09-05T10:52:51.444Z,3.57
2018-09-05T10:55:22.699Z,3.50
2018-09-05T10:57:54.194Z,3.40
2018-09-05T11:00:25.438Z,3.50
2018-09-05T11:02:56.517Z,3.33
2018-09-05T11:05:27.866Z,3.60
2018-09-05T11:07:59.439Z,3.83
2018-09-05T11:10:30.994Z,3.67
2018-09-05T11:13:02.349Z,3.70
2018-09-05T11:15:33.906Z,3.80
2018-09-05T11:18:05.446Z,2.97
2018-09-05T11:20:37.167Z,3.17
2018-09-05T11:23:09.035Z,3.47
2018-09-05T11:25:40.588Z,3.27
2018-09-05T11:28:11.951Z,3.70
2018-09-05T11:30:43.407Z,3.67
2018-09-05T11:33:15.267Z,3.60
2018-09-05T11:35:46.862Z,3.57
2018-09-05T11:38:18.366Z,2.80
2018-09-05T11:40:49.972Z,3.60
2018-09-05T11:43:21.469Z,3.33
2018-09-05T11:45:53.139Z,3.97
2018-09-05T11:48:24.787Z,3.33
2018-09-05T11:50:56.106Z,4.30
2018-09-05T11:53:27.559Z,3.53
2018-09-05T11:55:59.030Z,3.47
2018-09-05T11:58:30.481Z,3.40
2018-09-05T12:01:01.924Z,3.23
2018-09-05T12:03:33.379Z,3.63
2018-09-05T12:06:05.492Z,3.37
2018-09-05T12:08:37.013Z,3.43
2018-09-05T12:13:34.094Z,3.67
2018-09-05T12:16:05.659Z,3.37
2018-09-05T12:18:37.004Z,3.00
2018-09-05T12:21:08.500Z,3.10
2018-09-05T12:23:40.535Z,3.77
2018-09-05T12:26:12.096Z,3.30
2018-09-05T12:28:43.530Z,3.63
2018-09-05T12:31:14.997Z,2.97
2018-09-05T12:33:46.898Z,3.60
2018-09-05T12:36:17.946Z,3.30
2018-09-05T12:38:49.114Z,3.30
2018-09-05T12:41:20.071Z,2.97
2018-09-05T12:43:51.152Z,3.67
2018-09-05T12:46:22.211Z,3.60
2018-09-05T12:48:53.585Z,3.90
2018-09-05T12:51:25.130Z,2.93
2018-09-05T12:53:56.147Z,3.90
2018-09-05T12:56:27.381Z,3.43
2018-09-05T12:58:58.743Z,3.80
2018-09-05T13:01:30.123Z,3.80
2018-09-05T13:04:01.471Z,3.67
2018-09-05T13:06:32.495Z,3.30
2018-09-05T13:09:03.987Z,3.60
2018-09-05T13:11:35.019Z,3.20
2018-09-05T13:14:06.300Z,3.30
2018-09-05T13:16:38.221Z,3.53
2018-09-05T13:19:10.003Z,3.40
2018-09-05T13:21:41.386Z,3.43
2018-09-05T13:24:12.725Z,3.43
2018-09-05T13:26:44.588Z,3.33
2018-09-05T13:29:16.094Z,3.67
2018-09-05T13:31:47.436Z,3.53
2018-09-05T13:34:18.858Z,4.00
2018-09-05T13:39:15.774Z,3.77
2018-09-05T13:41:47.030Z,3.27
2018-09-05T13:44:18.721Z,3.57
2018-09-05T13:46:50.072Z,3.60
2018-09-05T13:49:22.020Z,3.97
2018-09-05T13:51:58.483Z,3.43
2018-09-05T13:54:29.974Z,3.30
2018-09-05T13:57:01.802Z,3.50
2018-09-05T13:59:33.577Z,2.93
2018-09-05T14:02:05.007Z,3.33
2018-09-05T14:04:36.574Z,3.30
2018-09-05T14:07:08.058Z,3.27
2018-09-05T14:09:39.395Z,3.47
2018-09-05T14:12:10.598Z,3.70
2018-09-05T14:14:42.082Z,3.17
2018-09-05T14:17:13.540Z,3.23
2018-09-05T14:19:44.938Z,3.10
2018-09-05T14:22:16.631Z,3.10
2018-09-05T14:24:47.844Z,3.13
2018-09-05T14:27:19.099Z,3.10
2018-09-05T14:29:50.703Z,3.00
2018-09-05T14:32:22.340Z,3.73
2018-09-05T14:34:53.567Z,2.87
2018-09-05T14:37:25.384Z,3.43
2018-09-05T14:39:56.833Z,3.40
2018-09-05T14:42:28.083Z,3.00
2018-09-05T14:44:59.951Z,3.50
2018-09-05T14:47:31.359Z,3.30
2018-09-05T14:50:02.907Z,2.77
2018-09-05T14:52:34.435Z,3.10
2018-09-05T14:55:05.665Z,3.37
2018-09-05T14:57:37.448Z,3.13
2018-09-05T15:00:09.317Z,3.20
2018-09-05T15:02:40.550Z,3.30
2018-09-05T15:05:11.899Z,3.40
2018-09-05T15:07:50.379Z,3.07
2018-09-05T15:10:21.858Z,2.90
2018-09-05T15:12:53.300Z,3.00
2018-09-05T15:15:25.188Z,2.73
2018-09-05T15:17:56.438Z,3.07
2018-09-05T15:20:27.674Z,2.67
2018-09-05T15:22:58.931Z,3.23
2018-09-05T15:25:30.075Z,2.87
2018-09-05T15:28:01.516Z,2.50
2018-09-05T15:30:32.738Z,2.80
2018-09-05T15:33:03.882Z,3.37
2018-09-05T15:35:34.850Z,2.87
2018-09-05T15:38:06.558Z,2.63
2018-09-05T15:40:37.836Z,2.90
2018-09-05T15:43:09.056Z,3.20
2018-09-05T15:45:40.571Z,2.70
2018-09-05T15:48:11.637Z,3.03
2018-09-05T15:50:43.119Z,2.93
2018-09-05T15:53:14.191Z,2.73
2018-09-05T15:55:45.203Z,2.73
2018-09-05T15:58:16.450Z,3.10
2018-09-05T16:00:47.698Z,2.87
2018-09-05T16:03:18.672Z,2.97
2018-09-05T16:05:49.660Z,2.80
2018-09-05T16:08:20.891Z,2.70
2018-09-05T16:10:51.995Z,3.00
2018-09-05T16:13:23.030Z,2.73
2018-09-05T16:15:54.389Z,2.57
2018-09-05T16:18:25.486Z,2.63
2018-09-05T16:23:22.275Z,2.17
2018-09-05T16:25:53.392Z,2.73
2018-09-05T16:33:15.765Z,2.53
2018-09-05T16:35:46.798Z,2.87
2018-09-05T16:38:17.935Z,3.00
2018-09-05T16:43:14.644Z,2.97
2018-09-05T16:45:45.813Z,2.60
2018-09-05T16:48:17.176Z,2.40
2018-09-05T16:50:48.192Z,2.53
2018-09-05T16:53:19.471Z,2.43
2018-09-05T16:55:50.597Z,2.43
2018-09-05T16:58:21.779Z,2.47
2018-09-05T17:03:18.970Z,2.60
2018-09-05T17:05:50.055Z,2.60
2018-09-05T17:08:21.070Z,2.40
2018-09-05T17:13:17.731Z,2.40
2018-09-05T17:15:48.657Z,2.57
2018-09-05T17:18:19.750Z,2.80
2018-09-05T17:23:17.131Z,2.77
2018-09-05T17:25:48.454Z,2.30
2018-09-05T17:28:19.495Z,2.37
2018-09-05T17:33:17.092Z,2.63
2018-09-05T17:35:48.443Z,2.50
2018-09-05T17:38:19.599Z,2.27
2018-09-05T17:43:16.368Z,2.43
2018-09-05T17:45:47.560Z,2.00
2018-09-05T17:48:19.426Z,2.27
2018-09-05T17:53:16.049Z,2.10
2018-09-05T17:55:47.371Z,2.40
2018-09-05T17:58:18.503Z,2.80
2018-09-05T18:03:15.383Z,2.47
2018-09-05T18:05:46.442Z,2.40
2018-09-05T18:08:17.440Z,2.50
2018-09-05T18:13:14.735Z,2.70
2018-09-05T18:15:45.910Z,1.90
2018-09-05T18:18:17.084Z,2.27
2018-09-05T18:23:21.938Z,2.23
2018-09-05T18:25:53.260Z,2.60
2018-09-05T18:28:24.450Z,2.50
2018-09-05T18:30:55.606Z,2.57
2018-09-05T18:33:26.772Z,2.60
2018-09-05T18:35:57.954Z,2.30
2018-09-05T18:38:28.930Z,2.20
2018-09-05T18:41:00.474Z,2.60
2018-09-05T18:43:31.475Z,2.33
2018-09-05T18:46:02.935Z,2.40
2018-09-05T18:48:34.603Z,2.60
2018-09-05T18:53:34.129Z,2.13
2018-09-05T18:56:05.679Z,2.07
2018-09-05T18:58:37.222Z,2.10
2018-09-05T19:01:08.626Z,2.43
2018-09-05T19:03:39.918Z,2.13
2018-09-05T19:06:11.400Z,2.37
2018-09-05T19:08:42.327Z,2.10
2018-09-05T19:11:13.283Z,2.33
2018-09-05T19:13:44.226Z,2.00
2018-09-05T19:16:15.319Z,1.93
2018-09-05T19:18:46.422Z,2.40
2018-09-05T19:21:17.797Z,2.00
2018-09-05T19:23:48.896Z,2.40
2018-09-05T19:26:19.858Z,2.10
2018-09-05T19:28:50.878Z,2.00
2018-09-05T19:31:22.387Z,1.83
2018-09-05T19:33:53.738Z,2.20
2018-09-05T19:36:24.754Z,2.07
2018-09-05T19:38:55.988Z,1.90
2018-09-05T19:41:27.027Z,2.03
2018-09-05T19:43:58.191Z,2.03
2018-09-05T19:46:29.243Z,2.40
2018-09-05T19:49:00.200Z,2.40
2018-09-05T19:51:31.266Z,2.23
2018-09-05T19:54:02.366Z,2.00
2018-09-05T19:56:33.548Z,2.00
2018-09-05T19:59:05.101Z,2.30
2018-09-05T20:01:36.235Z,2.50
2018-09-05T20:04:07.388Z,2.13
2018-09-05T20:06:38.502Z,2.40
2018-09-05T20:09:10.514Z,2.30
2018-09-05T20:11:41.659Z,2.30
2018-09-05T20:14:13.159Z,2.30
2018-09-05T20:16:44.304Z,2.77
2018-09-05T20:19:15.644Z,2.40
2018-09-05T20:21:46.593Z,2.57
2018-09-05T20:24:17.849Z,2.60
2018-09-05T20:26:48.834Z,2.73
2018-09-05T20:29:19.826Z,3.30
2018-09-05T20:31:50.884Z,2.50
2018-09-05T20:34:21.872Z,2.57
2018-09-05T20:36:53.038Z,2.67
2018-09-05T20:42:12.178Z,2.83
2018-09-05T20:44:43.400Z,3.20
2018-09-05T20:47:14.422Z,2.73
2018-09-05T20:49:45.363Z,2.80
2018-09-05T20:52:16.393Z,2.67
2018-09-05T20:54:47.502Z,2.97
2018-09-05T20:57:18.852Z,3.00
2018-09-05T20:59:49.783Z,3.47
2018-09-05T21:02:21.252Z,3.40
2018-09-05T21:04:52.264Z,3.60
2018-09-05T21:07:23.383Z,3.03
2018-09-05T21:09:54.378Z,3.00
2018-09-05T21:12:25.324Z,3.03
2018-09-05T21:14:56.370Z,3.30
2018-09-05T21:17:27.379Z,2.80
2018-09-05T21:19:58.835Z,3.03
2018-09-05T21:22:29.897Z,3.00
2018-09-05T21:25:00.921Z,3.17
2018-09-05T21:27:32.133Z,3.17
2018-09-05T21:30:03.321Z,4.93
2018-09-05T21:32:34.463Z,3.60
2018-09-05T21:35:05.763Z,3.17
2018-09-05T21:37:36.841Z,3.03
2018-09-05T21:40:09.160Z,3.40
2018-09-05T21:42:40.313Z,3.43
2018-09-05T21:45:11.615Z,3.30
2018-09-05T21:47:42.756Z,3.10
2018-09-05T21:50:13.993Z,3.20
2018-09-05T21:52:45.254Z,3.10
2018-09-05T21:55:16.925Z,3.30
2018-09-05T21:57:48.163Z,3.20
2018-09-05T22:00:19.228Z,3.50
2018-09-05T22:02:50.299Z,3.67
2018-09-05T22:05:21.441Z,3.20
2018-09-05T22:07:52.593Z,3.50
2018-09-05T22:10:24.228Z,3.67
2018-09-05T22:12:55.277Z,3.60
2018-09-05T22:15:26.506Z,3.60
2018-09-05T22:17:57.617Z,3.90
2018-09-05T22:20:28.610Z,3.90
2018-09-05T22:22:59.751Z,3.67
2018-09-05T22:25:31.053Z,4.20
2018-09-05T22:28:02.094Z,3.97
2018-09-05T22:30:34.119Z,4.47
2018-09-05T22:33:05.356Z,4.33
2018-09-05T22:35:36.805Z,3.70
2018-09-05T22:38:08.050Z,3.83
2018-09-05T22:40:57.130Z,3.87
2018-09-05T22:43:38.889Z,3.70
2018-09-05T22:46:20.206Z,4.03
2018-09-05T22:49:01.478Z,3.80
2018-09-05T22:53:48.887Z,3.90
2018-09-05T22:56:58.115Z,3.83
2018-09-05T23:01:46.722Z,3.73
2018-09-05T23:06:30.184Z,4.10
2018-09-05T23:09:01.417Z,3.77
2018-09-05T23:11:57.095Z,4.20
2018-09-05T23:14:40.080Z,4.87
2018-09-05T23:17:21.822Z,4.50
2018-09-05T23:22:03.674Z,4.13
2018-09-05T23:24:34.943Z,4.43
2018-09-05T23:27:06.150Z,4.23
2018-09-05T23:29:37.483Z,4.50
2018-09-05T23:32:08.771Z,4.37
2018-09-05T23:34:39.938Z,4.10
2018-09-05T23:37:11.087Z,4.10
2018-09-05T23:39:42.153Z,4.67
2018-09-05T23:42:13.358Z,4.37
2018-09-05T23:44:44.434Z,5.20
2018-09-05T23:47:15.448Z,4.37
2018-09-05T23:49:46.486Z,4.90
2018-09-05T23:52:17.771Z,4.80
2018-09-05T23:54:48.842Z,4.30
2018-09-05T23:57:20.013Z,4.53
2018-09-05T23:59:51.342Z,4.30
